MSC Gina — 3FLY9 — position and weather

sailwx.info

Track history (hours):
 
Tides and Currents Weather Stations Pressure Air Temp Water Temp Dewpoint Dewpoint Depression Visibility Wind Speed Wind Dir Waves Ship Positions

MSC Gina

Last reported at 2018-Apr-19 11:04 UTC. Time now 2018-Apr-24 14:40 UTC.
Position N 26°31' W 078°46'.

Length 259 m; draft 7.8 m.

Type: Ship (hazmat cat A). MMSI: 357542000.

Date/timePositionNaut miles runAvg speedWind from/ knotsBaromVisibWave heightAir tempDewpointWater temp
2018-Apr-19 11:04N 26°31' W 078°46'0 0.0
2018-Apr-19 10:49N 26°31' W 078°46'0 0.0
2018-Apr-19 03:52N 26°31' W 078°46'0 0.0
2018-Apr-18 16:12N 26°31' W 078°47'1 6.5
2018-Apr-18 16:00N 26°30' W 078°47'2 3.3
2018-Apr-18 15:30N 26°29' W 078°48'1 2.3
2018-Apr-18 14:59N 26°28' W 078°49'0 0.9
2018-Apr-18 14:30N 26°28' W 078°50'2 4.2
2018-Apr-18 14:00N 26°28' W 078°52'1 2.4
2018-Apr-18 13:29N 26°29' W 078°54'1 1.6
2018-Apr-18 13:00N 26°29' W 078°54'1 1.5
2018-Apr-18 12:30N 26°30' W 078°54'1 1.3
2018-Apr-18 12:00N 26°31' W 078°55'1 2.1
2018-Apr-18 11:30N 26°31' W 078°56'5 9.2
2018-Apr-18 11:00N 26°34' W 078°59'1020.5
2018-Apr-18 10:30N 26°42' W 079°07'1020.0
2018-Apr-18 10:00N 26°50' W 079°14'918.0
2018-Apr-18 09:30N 26°58' W 079°19'1019.1
2018-Apr-18 09:00N 27°07' W 079°18'1019.6
2018-Apr-18 08:30N 27°17' W 079°17'1019.8
2018-Apr-18 08:00N 27°27' W 079°15'1219.3
2018-Apr-18 07:23N 27°39' W 079°15'819.9
2018-Apr-18 07:00N 27°46' W 079°14'1019.9
2018-Apr-18 06:30N 27°56' W 079°13'1019.8
2018-Apr-18 06:00N 28°06' W 079°12'918.3
2018-Apr-18 05:31N 28°15' W 079°12'815.6
2018-Apr-18 05:00N 28°23' W 079°12'  
2018-Apr-15 09:28N 36°41' W 075°44'510.5
2018-Apr-15 09:00N 36°46' W 075°47'5 9.3
2018-Apr-15 08:28N 36°50' W 075°50'5 9.6
2018-Apr-15 08:00N 36°53' W 075°54'5 9.5
2018-Apr-15 07:30N 36°56' W 075°58'5 8.5
2018-Apr-15 06:58N 36°58' W 076°04'714.0
2018-Apr-15 06:29N 36°60' W 076°12'713.4
2018-Apr-15 06:00N 36°58' W 076°20'510.4
2018-Apr-15 05:30N 36°53' W 076°20'2 3.2
2018-Apr-15 04:57N 36°51' W 076°19'0 0.0
2018-Apr-15 04:30N 36°51' W 076°19'0 0.0
2018-Apr-15 04:00N 36°51' W 076°19'0 0.0
2018-Apr-15 03:30N 36°51' W 076°19'0 0.0
2018-Apr-15 03:00N 36°51' W 076°19'0 0.0
2018-Apr-15 02:30N 36°51' W 076°19'0 0.0
2018-Apr-15 02:00N 36°51' W 076°19'0 0.0
2018-Apr-15 01:30N 36°51' W 076°19'0 0.0
2018-Apr-15 01:00N 36°51' W 076°19'0 0.0
2018-Apr-15 00:30N 36°51' W 076°19'0 0.0
2018-Apr-15 00:00N 36°51' W 076°19'0 0.0
2018-Apr-14 23:30N 36°51' W 076°19'0 0.0
2018-Apr-14 23:00N 36°51' W 076°19'0 0.0
2018-Apr-14 22:30N 36°51' W 076°19'0 0.0
2018-Apr-14 22:00N 36°51' W 076°19'0 0.0
2018-Apr-14 21:30N 36°51' W 076°19'0 0.0
2018-Apr-14 21:00N 36°51' W 076°19'0 0.8
2018-Apr-14 20:30N 36°52' W 076°19'4 7.1
2018-Apr-14 20:00N 36°55' W 076°20'5 9.5
2018-Apr-14 19:30N 36°60' W 076°18'713.3
2018-Apr-14 19:01N 36°59' W 076°10'713.9
2018-Apr-14 18:30N 36°57' W 076°02'3 6.6
2018-Apr-14 18:00N 37°00' W 076°02'815.9
2018-Apr-14 17:29N 37°07' W 076°08'6315.1
2018-Apr-14 13:17N 38°10' W 076°14'3415.7
2018-Apr-14 11:06N 38°43' W 076°26'315.3
2018-Apr-14 10:54N 38°46' W 076°26'715.3
2018-Apr-14 10:29N 38°53' W 076°24'714.9
2018-Apr-14 10:00N 38°60' W 076°23'714.1
2018-Apr-14 09:30N 39°07' W 076°24'612.1
2018-Apr-14 09:00N 39°11' W 076°29'510.1
2018-Apr-14 08:30N 39°15' W 076°34'1 1.3
2018-Apr-14 07:58N 39°15' W 076°33'0 0.0
2018-Apr-14 07:18N 39°15' W 076°33'0 0.0
2018-Apr-14 06:40N 39°15' W 076°33'0 0.0
2018-Apr-14 05:22N 39°15' W 076°33'0 0.0
2018-Apr-14 04:58N 39°15' W 076°33'0 0.0
2018-Apr-14 04:28N 39°15' W 076°33'0 0.0
2018-Apr-14 03:06N 39°15' W 076°33'0 0.0
2018-Apr-14 02:58N 39°15' W 076°33'0 0.0
2018-Apr-14 01:52N 39°15' W 076°33'0 0.0
2018-Apr-14 01:28N 39°15' W 076°33'0 0.0
2018-Apr-14 00:42N 39°15' W 076°33'0 0.0
2018-Apr-14 00:30N 39°15' W 076°33'0 0.0
2018-Apr-13 23:54N 39°15' W 076°33'0 0.0
2018-Apr-13 23:30N 39°15' W 076°33'0 0.0
2018-Apr-13 23:00N 39°15' W 076°33'0 0.0
2018-Apr-13 22:28N 39°15' W 076°33'0 0.0
2018-Apr-13 22:00N 39°15' W 076°33'0 0.0
2018-Apr-13 21:30N 39°15' W 076°33'1 1.7
2018-Apr-13 21:00N 39°14' W 076°33'3 5.5
2018-Apr-13 20:30N 39°12' W 076°31'1311.9
2018-Apr-13 19:26N 39°01' W 076°22'715.2
2018-Apr-13 18:59N 38°54' W 076°23'5017.0
2018-Apr-13 16:03N 38°05' W 076°13'117.4
2018-Apr-13 16:00N 38°04' W 076°13'5016.2
2018-Apr-13 12:57N 37°15' W 076°08'916.6
2018-Apr-13 12:25N 37°06' W 076°07'717.2
2018-Apr-13 12:00N 37°00' W 076°02'611.7
2018-Apr-13 11:29N 36°56' W 075°56'4 8.2
2018-Apr-13 11:00N 36°53' W 075°53'5 8.5
2018-Apr-13 10:29N 36°51' W 075°48'3 7.3
2018-Apr-13 10:00N 36°49' W 075°44'16914.7
2018-Apr-12 22:31N 39°20' W 074°07'116.7
2018-Apr-12 22:28N 39°20' W 074°07'816.7
2018-Apr-12 22:00N 39°27' W 074°03'917.0
2018-Apr-12 21:28N 39°36' W 073°58'817.2
2018-Apr-12 21:00N 39°43' W 073°54'917.5
2018-Apr-12 20:30N 39°52' W 073°53'917.5
2018-Apr-12 20:00N 40°01' W 073°52'816.0
2018-Apr-12 19:30N 40°09' W 073°51'510.0
2018-Apr-12 18:59N 40°14' W 073°50'5 9.7
2018-Apr-12 18:30N 40°18' W 073°49'5 9.6
2018-Apr-12 17:59N 40°23' W 073°50'4 8.3
2018-Apr-12 17:30N 40°27' W 073°51'4 9.0
2018-Apr-12 17:00N 40°29' W 073°56'612.5
2018-Apr-12 16:30N 40°34' W 074°02'611.6
2018-Apr-12 16:00N 40°39' W 074°05'3 6.4
2018-Apr-12 15:30N 40°38' W 074°09'2 4.0
2018-Apr-12 15:00N 40°40' W 074°08'1 2.1
2018-Apr-12 14:30N 40°41' W 074°09'0 0.0
2018-Apr-12 14:00N 40°41' W 074°09'0 0.0
2018-Apr-12 13:30N 40°41' W 074°09'0 0.0
2018-Apr-12 13:00N 40°41' W 074°09'0 0.0
2018-Apr-12 12:30N 40°41' W 074°09'0 0.0
2018-Apr-12 12:00N 40°41' W 074°09'0 0.0
2018-Apr-12 11:27N 40°41' W 074°09'0 0.0
2018-Apr-12 11:00N 40°41' W 074°09'0 0.0
2018-Apr-12 10:30N 40°41' W 074°09'0 0.0
2018-Apr-12 10:00N 40°41' W 074°09'0 0.0
2018-Apr-12 09:30N 40°41' W 074°09'0 0.0
2018-Apr-12 09:00N 40°41' W 074°09'0 0.0
2018-Apr-12 08:30N 40°41' W 074°09'0 0.0
2018-Apr-12 08:00N 40°41' W 074°09'0 0.0
2018-Apr-12 07:30N 40°41' W 074°09'0 0.0
2018-Apr-12 07:00N 40°41' W 074°09'0 0.0
2018-Apr-12 06:30N 40°41' W 074°09'0 0.0
2018-Apr-12 06:00N 40°41' W 074°09'0 0.0
2018-Apr-12 05:30N 40°41' W 074°09'0 0.0
2018-Apr-12 05:00N 40°41' W 074°09'0 0.0
2018-Apr-12 04:30N 40°41' W 074°09'0 0.0
2018-Apr-12 04:00N 40°41' W 074°09'0 0.0
2018-Apr-12 03:30N 40°41' W 074°09'0 0.0
2018-Apr-12 03:00N 40°41' W 074°09'0 0.0
2018-Apr-12 02:30N 40°41' W 074°09'0 0.0
2018-Apr-12 02:00N 40°41' W 074°09'0 0.0
2018-Apr-12 01:30N 40°41' W 074°09'0 0.0
2018-Apr-12 00:57N 40°41' W 074°09'0 0.0
2018-Apr-12 00:27N 40°41' W 074°09'0 0.0
2018-Apr-11 23:57N 40°41' W 074°09'0 0.0
2018-Apr-11 23:30N 40°41' W 074°09'0 0.0
2018-Apr-11 23:00N 40°41' W 074°09'0 0.0
2018-Apr-11 22:30N 40°41' W 074°09'0 0.0
2018-Apr-11 22:00N 40°41' W 074°09'0 0.0
2018-Apr-11 21:30N 40°41' W 074°09'0 0.0
2018-Apr-11 21:00N 40°41' W 074°09'0 0.0
2018-Apr-11 20:30N 40°41' W 074°09'0 0.0
2018-Apr-11 19:57N 40°41' W 074°09'0 0.0
2018-Apr-11 19:30N 40°41' W 074°09'0 0.0
2018-Apr-11 18:57N 40°41' W 074°09'0 0.0
2018-Apr-11 18:24N 40°41' W 074°09'0 0.0
2018-Apr-11 18:00N 40°41' W 074°09'0 0.0
2018-Apr-11 17:30N 40°41' W 074°09'0 0.0
2018-Apr-11 17:00N 40°41' W 074°09'0 0.0
2018-Apr-11 16:30N 40°41' W 074°09'0 0.0
2018-Apr-11 16:00N 40°41' W 074°09'0 0.4
2018-Apr-11 15:31N 40°41' W 074°09'2 4.2
2018-Apr-11 15:00N 40°39' W 074°09'3 5.4
2018-Apr-11 14:31N 40°39' W 074°05'4 7.2
2018-Apr-11 14:01N 40°36' W 074°02'713.9
2018-Apr-11 13:29N 40°30' W 073°57'510.0
2018-Apr-11 13:00N 40°28' W 073°51'5 9.8
2018-Apr-11 12:30N 40°28' W 073°45'3 0.5
2018-Apr-11 06:11N 40°29' W 073°41'1 5.5
2018-Apr-11 05:55N 40°28' W 073°42'4 9.1
2018-Apr-11 05:30N 40°24' W 073°42'5 9.4
2018-Apr-11 05:00N 40°21' W 073°37'  
Track history (hours):
 
Tides and Currents Weather Stations Pressure Air Temp Water Temp Dewpoint Dewpoint Depression Visibility Wind Speed Wind Dir Waves Ship Positions

MSC Gina

Last reported at 2018-Apr-19 11:04 UTC. Time now 2018-Apr-24 14:40 UTC.
Position N 26°31' W 078°46'.

Length 259 m; draft 7.8 m.

Type: Ship (hazmat cat A). MMSI: 357542000.

Date/timePositionNaut miles runAvg speedWind from/ knotsBaromVisibWave heightAir tempDewpointWater temp
2018-Apr-19 11:04N 26°31' W 078°46'0 0.0
2018-Apr-19 10:49N 26°31' W 078°46'0 0.0
2018-Apr-19 03:52N 26°31' W 078°46'0 0.0
2018-Apr-18 16:12N 26°31' W 078°47'1 6.5
2018-Apr-18 16:00N 26°30' W 078°47'2 3.3
2018-Apr-18 15:30N 26°29' W 078°48'1 2.3
2018-Apr-18 14:59N 26°28' W 078°49'0 0.9
2018-Apr-18 14:30N 26°28' W 078°50'2 4.2
2018-Apr-18 14:00N 26°28' W 078°52'1 2.4
2018-Apr-18 13:29N 26°29' W 078°54'1 1.6
2018-Apr-18 13:00N 26°29' W 078°54'1 1.5
2018-Apr-18 12:30N 26°30' W 078°54'1 1.3
2018-Apr-18 12:00N 26°31' W 078°55'1 2.1
2018-Apr-18 11:30N 26°31' W 078°56'5 9.2
2018-Apr-18 11:00N 26°34' W 078°59'1020.5
2018-Apr-18 10:30N 26°42' W 079°07'1020.0
2018-Apr-18 10:00N 26°50' W 079°14'918.0
2018-Apr-18 09:30N 26°58' W 079°19'1019.1
2018-Apr-18 09:00N 27°07' W 079°18'1019.6
2018-Apr-18 08:30N 27°17' W 079°17'1019.8
2018-Apr-18 08:00N 27°27' W 079°15'1219.3
2018-Apr-18 07:23N 27°39' W 079°15'819.9
2018-Apr-18 07:00N 27°46' W 079°14'1019.9
2018-Apr-18 06:30N 27°56' W 079°13'1019.8
2018-Apr-18 06:00N 28°06' W 079°12'918.3
2018-Apr-18 05:31N 28°15' W 079°12'815.6
2018-Apr-18 05:00N 28°23' W 079°12'  
2018-Apr-15 09:28N 36°41' W 075°44'510.5
2018-Apr-15 09:00N 36°46' W 075°47'5 9.3
2018-Apr-15 08:28N 36°50' W 075°50'5 9.6
2018-Apr-15 08:00N 36°53' W 075°54'5 9.5
2018-Apr-15 07:30N 36°56' W 075°58'5 8.5
2018-Apr-15 06:58N 36°58' W 076°04'714.0
2018-Apr-15 06:29N 36°60' W 076°12'713.4
2018-Apr-15 06:00N 36°58' W 076°20'510.4
2018-Apr-15 05:30N 36°53' W 076°20'2 3.2
2018-Apr-15 04:57N 36°51' W 076°19'0 0.0
2018-Apr-15 04:30N 36°51' W 076°19'0 0.0
2018-Apr-15 04:00N 36°51' W 076°19'0 0.0
2018-Apr-15 03:30N 36°51' W 076°19'0 0.0
2018-Apr-15 03:00N 36°51' W 076°19'0 0.0
2018-Apr-15 02:30N 36°51' W 076°19'0 0.0
2018-Apr-15 02:00N 36°51' W 076°19'0 0.0
2018-Apr-15 01:30N 36°51' W 076°19'0 0.0
2018-Apr-15 01:00N 36°51' W 076°19'0 0.0
2018-Apr-15 00:30N 36°51' W 076°19'0 0.0
2018-Apr-15 00:00N 36°51' W 076°19'0 0.0
2018-Apr-14 23:30N 36°51' W 076°19'0 0.0
2018-Apr-14 23:00N 36°51' W 076°19'0 0.0
2018-Apr-14 22:30N 36°51' W 076°19'0 0.0
2018-Apr-14 22:00N 36°51' W 076°19'0 0.0
2018-Apr-14 21:30N 36°51' W 076°19'0 0.0
2018-Apr-14 21:00N 36°51' W 076°19'0 0.8
2018-Apr-14 20:30N 36°52' W 076°19'4 7.1
2018-Apr-14 20:00N 36°55' W 076°20'5 9.5
2018-Apr-14 19:30N 36°60' W 076°18'713.3
2018-Apr-14 19:01N 36°59' W 076°10'713.9
2018-Apr-14 18:30N 36°57' W 076°02'3 6.6
2018-Apr-14 18:00N 37°00' W 076°02'815.9
2018-Apr-14 17:29N 37°07' W 076°08'6315.1
2018-Apr-14 13:17N 38°10' W 076°14'3415.7
2018-Apr-14 11:06N 38°43' W 076°26'315.3
2018-Apr-14 10:54N 38°46' W 076°26'715.3
2018-Apr-14 10:29N 38°53' W 076°24'714.9
2018-Apr-14 10:00N 38°60' W 076°23'714.1
2018-Apr-14 09:30N 39°07' W 076°24'612.1
2018-Apr-14 09:00N 39°11' W 076°29'510.1
2018-Apr-14 08:30N 39°15' W 076°34'1 1.3
2018-Apr-14 07:58N 39°15' W 076°33'0 0.0
2018-Apr-14 07:18N 39°15' W 076°33'0 0.0
2018-Apr-14 06:40N 39°15' W 076°33'0 0.0
2018-Apr-14 05:22N 39°15' W 076°33'0 0.0
2018-Apr-14 04:58N 39°15' W 076°33'0 0.0
2018-Apr-14 04:28N 39°15' W 076°33'0 0.0
2018-Apr-14 03:06N 39°15' W 076°33'0 0.0
2018-Apr-14 02:58N 39°15' W 076°33'0 0.0
2018-Apr-14 01:52N 39°15' W 076°33'0 0.0
2018-Apr-14 01:28N 39°15' W 076°33'0 0.0
2018-Apr-14 00:42N 39°15' W 076°33'0 0.0
2018-Apr-14 00:30N 39°15' W 076°33'0 0.0
2018-Apr-13 23:54N 39°15' W 076°33'0 0.0
2018-Apr-13 23:30N 39°15' W 076°33'0 0.0
2018-Apr-13 23:00N 39°15' W 076°33'0 0.0
2018-Apr-13 22:28N 39°15' W 076°33'0 0.0
2018-Apr-13 22:00N 39°15' W 076°33'0 0.0
2018-Apr-13 21:30N 39°15' W 076°33'1 1.7
2018-Apr-13 21:00N 39°14' W 076°33'3 5.5
2018-Apr-13 20:30N 39°12' W 076°31'1311.9
2018-Apr-13 19:26N 39°01' W 076°22'715.2
2018-Apr-13 18:59N 38°54' W 076°23'5017.0
2018-Apr-13 16:03N 38°05' W 076°13'117.4
2018-Apr-13 16:00N 38°04' W 076°13'5016.2
2018-Apr-13 12:57N 37°15' W 076°08'916.6
2018-Apr-13 12:25N 37°06' W 076°07'717.2
2018-Apr-13 12:00N 37°00' W 076°02'611.7
2018-Apr-13 11:29N 36°56' W 075°56'4 8.2
2018-Apr-13 11:00N 36°53' W 075°53'5 8.5
2018-Apr-13 10:29N 36°51' W 075°48'3 7.3
2018-Apr-13 10:00N 36°49' W 075°44'16914.7
2018-Apr-12 22:31N 39°20' W 074°07'116.7
2018-Apr-12 22:28N 39°20' W 074°07'816.7
2018-Apr-12 22:00N 39°27' W 074°03'917.0
2018-Apr-12 21:28N 39°36' W 073°58'817.2
2018-Apr-12 21:00N 39°43' W 073°54'917.5
2018-Apr-12 20:30N 39°52' W 073°53'917.5
2018-Apr-12 20:00N 40°01' W 073°52'816.0
2018-Apr-12 19:30N 40°09' W 073°51'510.0
2018-Apr-12 18:59N 40°14' W 073°50'5 9.7
2018-Apr-12 18:30N 40°18' W 073°49'5 9.6
2018-Apr-12 17:59N 40°23' W 073°50'4 8.3
2018-Apr-12 17:30N 40°27' W 073°51'4 9.0
2018-Apr-12 17:00N 40°29' W 073°56'612.5
2018-Apr-12 16:30N 40°34' W 074°02'611.6
2018-Apr-12 16:00N 40°39' W 074°05'3 6.4
2018-Apr-12 15:30N 40°38' W 074°09'2 4.0
2018-Apr-12 15:00N 40°40' W 074°08'1 2.1
2018-Apr-12 14:30N 40°41' W 074°09'0 0.0
2018-Apr-12 14:00N 40°41' W 074°09'0 0.0
2018-Apr-12 13:30N 40°41' W 074°09'0 0.0
2018-Apr-12 13:00N 40°41' W 074°09'0 0.0
2018-Apr-12 12:30N 40°41' W 074°09'0 0.0
2018-Apr-12 12:00N 40°41' W 074°09'0 0.0
2018-Apr-12 11:27N 40°41' W 074°09'0 0.0
2018-Apr-12 11:00N 40°41' W 074°09'0 0.0
2018-Apr-12 10:30N 40°41' W 074°09'0 0.0
2018-Apr-12 10:00N 40°41' W 074°09'0 0.0
2018-Apr-12 09:30N 40°41' W 074°09'0 0.0
2018-Apr-12 09:00N 40°41' W 074°09'0 0.0
2018-Apr-12 08:30N 40°41' W 074°09'0 0.0
2018-Apr-12 08:00N 40°41' W 074°09'0 0.0
2018-Apr-12 07:30N 40°41' W 074°09'0 0.0
2018-Apr-12 07:00N 40°41' W 074°09'0 0.0
2018-Apr-12 06:30N 40°41' W 074°09'0 0.0
2018-Apr-12 06:00N 40°41' W 074°09'0 0.0
2018-Apr-12 05:30N 40°41' W 074°09'0 0.0
2018-Apr-12 05:00N 40°41' W 074°09'0 0.0
2018-Apr-12 04:30N 40°41' W 074°09'0 0.0
2018-Apr-12 04:00N 40°41' W 074°09'0 0.0
2018-Apr-12 03:30N 40°41' W 074°09'0 0.0
2018-Apr-12 03:00N 40°41' W 074°09'0 0.0
2018-Apr-12 02:30N 40°41' W 074°09'0 0.0
2018-Apr-12 02:00N 40°41' W 074°09'0 0.0
2018-Apr-12 01:30N 40°41' W 074°09'0 0.0
2018-Apr-12 00:57N 40°41' W 074°09'0 0.0
2018-Apr-12 00:27N 40°41' W 074°09'0 0.0
2018-Apr-11 23:57N 40°41' W 074°09'0 0.0
2018-Apr-11 23:30N 40°41' W 074°09'0 0.0
2018-Apr-11 23:00N 40°41' W 074°09'0 0.0
2018-Apr-11 22:30N 40°41' W 074°09'0 0.0
2018-Apr-11 22:00N 40°41' W 074°09'0 0.0
2018-Apr-11 21:30N 40°41' W 074°09'0 0.0
2018-Apr-11 21:00N 40°41' W 074°09'0 0.0
2018-Apr-11 20:30N 40°41' W 074°09'0 0.0
2018-Apr-11 19:57N 40°41' W 074°09'0 0.0
2018-Apr-11 19:30N 40°41' W 074°09'0 0.0
2018-Apr-11 18:57N 40°41' W 074°09'0 0.0
2018-Apr-11 18:24N 40°41' W 074°09'0 0.0
2018-Apr-11 18:00N 40°41' W 074°09'0 0.0
2018-Apr-11 17:30N 40°41' W 074°09'0 0.0
2018-Apr-11 17:00N 40°41' W 074°09'0 0.0
2018-Apr-11 16:30N 40°41' W 074°09'0 0.0
2018-Apr-11 16:00N 40°41' W 074°09'0 0.4
2018-Apr-11 15:31N 40°41' W 074°09'2 4.2
2018-Apr-11 15:00N 40°39' W 074°09'3 5.4
2018-Apr-11 14:31N 40°39' W 074°05'4 7.2
2018-Apr-11 14:01N 40°36' W 074°02'713.9
2018-Apr-11 13:29N 40°30' W 073°57'510.0
2018-Apr-11 13:00N 40°28' W 073°51'5 9.8
2018-Apr-11 12:30N 40°28' W 073°45'3 0.5
2018-Apr-11 06:11N 40°29' W 073°41'1 5.5
2018-Apr-11 05:55N 40°28' W 073°42'4 9.1
2018-Apr-11 05:30N 40°24' W 073°42'5 9.4
2018-Apr-11 05:00N 40°21' W 073°37'  

Dump ship's entire track history